CFB Cold Lake
CYOD : rendu visible

Aérodrome :











RETROUVEZ-NOUS SUR...

 
LOGIN :

S'inscrire | Disclaimer

   EN    FR    IT 

 









Légende :    VFR   VFR Marginal   IFR   IFR Intensif   IFR Très Intensif
Visi : 
Plafond : 
>= 8 km
>= 3000ft
5 à 8 km
1000 à 3000 ft
1500m à 5 km
500 à 1000 ft
800 à 1500m
200 à 500 ft
< 800m
< 200 ft
Symboles :   Orages  Brouillard  Fortes neiges  Fortes précipitations  Vent > 20 kt






- Altitude de l'aérodrome : 1775 ft
- Code IATA : YOD


CYOD - CFB Cold Lake

DERNIER METAR :
  • 301700Z 03009KT 10SM -SN FEW019 BKN045 M12/M16 A3002 RMK SC2SC6 SLP208

METARs EXPIRÉS :
  • 301637Z 03008KT 8SM -SN FEW019 BKN045 M12/M16 A3002 RMK SC2SC5 SLP207
  • 301600Z 02005KT 2 1/2SM -SN BKN019 BKN045 M13/M15 A3001 RMK SC5SC2 SLP204

TAF AMD TAF CYOD
Valide du 30 à 16h jusqu'au 31 à 12h UTC


301602Z 3016/3112 03010KT P6SM SCT015 BKN040
TEMPO 3016/3020 2SM -SN BKN015 OVC030
FM310800 03015G25KT 6SM -SN OVC025
FM310900 03012G22KT 1SM -SN OVC008 RMK NXT FCST BY 301800Z



MET'MAP, la Météo Aéronautique d'un coup d'oeil ! - Copyright ORBIFLY Décembre 2007 - Disclaimer

ORBIFLY MET'MAP TEAM :

Programmation & Développement : Alexandra Zaïnal
Sur une idée originale de : Baudouin d'Aumeries
Assistance à la programmation : Marc-Olivier Méhu
Soutien technique & logistique : Manuel Goepfert

Contact : metmap@orbifly.com




SOURCES & CREDITS :

   NOAA       Earth
Advisory